»·PEaware :: FDX5954 KFAT-KSAN

FDX5954 :: KFAT-KSAN

FLIGHT INFORMATION

Flight Status: Arrived
Operator:
Federal Express
More flights by this operator :: More flights under this callsign
Pilot: Joshua M. (19482)
Aircraft: BOEING 737-800
(B738)
More flights by this aircraft type
Origin: KFAT Fresno Yosemite Intl
United States
Destination: KSAN San Diego Intl-Lindbergh
United States
More flights between these airports :: More routes between these airports
Route: +BULL3 EHF J65 LANDO J5 LAX HUBRD1
File this flight plan on PilotEdge
Remarks: Outdated FMC Default XPlane
Altitude:
(Current/Filed)
27,000ft
Speed:
(Current/Filed)
450kts
Departed: 06-Oct-18 05:20 PM
Arrived: 06-Oct-18 06:30 PM
Distance/Time
Traveled:
273nm/1:10
Distance/Time
To Go:
Arrived

Flight Plot

Page will automatically refresh every two minutes.

Flight plan parsing failed; only flown route is shown


Map Options




Map Legend


Flown Route
Filed Route
Departure Airport
Arrival Airport
Navaid (VOR, NDB)
Fix

Horizontal Profiles

Position Reports

Time Latitude Longitude Heading Altitude Ground
Speed
06-Oct-18 16:54 36.780779 -119.714237 307 342ft 0kts
06-Oct-18 16:55 36.780779 -119.714237 307 342ft 0kts
06-Oct-18 16:56 36.780779 -119.714237 307 342ft 0kts
06-Oct-18 16:57 36.780779 -119.714237 307 342ft 0kts
06-Oct-18 16:58 36.780779 -119.714237 307 342ft 0kts
06-Oct-18 16:59 36.780779 -119.714237 307 342ft 0kts
06-Oct-18 17:00 36.780779 -119.714237 307 342ft 0kts
06-Oct-18 17:01 36.780779 -119.714237 307 342ft 0kts
06-Oct-18 17:02 36.780779 -119.714237 307 342ft 0kts
06-Oct-18 17:03 36.780779 -119.714237 307 342ft 0kts
06-Oct-18 17:04 36.780779 -119.714237 307 342ft 0kts
06-Oct-18 17:05 36.780779 -119.714237 307 342ft 0kts
06-Oct-18 17:06 36.780779 -119.714237 307 342ft 0kts
06-Oct-18 17:07 36.780710 -119.714026 286 342ft 2kts
06-Oct-18 17:08 36.780498 -119.713452 312 342ft 2kts
06-Oct-18 17:09 36.780208 -119.712962 305 342ft 1kts
06-Oct-18 17:10 36.780175 -119.712906 307 342ft 0kts
06-Oct-18 17:11 36.780175 -119.712906 307 342ft 0kts
06-Oct-18 17:12 36.780175 -119.712906 307 342ft 0kts
06-Oct-18 17:13 36.780175 -119.712906 307 342ft 0kts
06-Oct-18 17:14 36.780176 -119.712906 307 342ft 0kts
06-Oct-18 17:15 36.780478 -119.713561 273 342ft 0kts
06-Oct-18 17:16 36.778326 -119.715422 197 341ft 15kts
06-Oct-18 17:17 36.776413 -119.713033 125 341ft 15kts
06-Oct-18 17:18 36.773643 -119.707999 121 341ft 29kts
06-Oct-18 17:19 36.769811 -119.702897 212 341ft 0kts
06-Oct-18 17:20 36.769811 -119.702897 212 341ft 0kts
06-Oct-18 17:21 36.769282 -119.704282 306 341ft 11kts
06-Oct-18 17:22 36.777225 -119.718240 306 342ft 151kts
06-Oct-18 17:23 36.801242 -119.759481 304 2079ft 202kts
06-Oct-18 17:24 36.826158 -119.805929 304 3981ft 203kts
06-Oct-18 17:25 36.835153 -119.866836 237 5948ft 221kts
06-Oct-18 17:26 36.785756 -119.872805 156 7539ft 247kts
06-Oct-18 17:27 36.737058 -119.843610 155 8958ft 255kts
06-Oct-18 17:28 36.687736 -119.813746 155 10057ft 275kts
06-Oct-18 17:29 36.629953 -119.778845 155 10896ft 312kts
06-Oct-18 17:30 36.562947 -119.738432 155 11838ft 348kts
06-Oct-18 17:31 36.483436 -119.690534 155 13509ft 367kts
06-Oct-18 17:32 36.401129 -119.641064 155 15401ft 383kts
06-Oct-18 17:33 36.320225 -119.592558 155 17144ft 397kts
06-Oct-18 17:34 36.229859 -119.538520 155 18905ft 412kts
06-Oct-18 17:35 36.151563 -119.491816 155 20300ft 425kts
06-Oct-18 17:36 36.060037 -119.437354 155 21788ft 438kts
06-Oct-18 17:37 35.967489 -119.382423 155 23164ft 450kts
06-Oct-18 17:38 35.884926 -119.333504 156 24286ft 461kts
06-Oct-18 17:39 35.785447 -119.274524 156 25456ft 471kts
06-Oct-18 17:40 35.678647 -119.211410 156 26608ft 482kts
06-Oct-18 17:41 35.576269 -119.151141 156 26878ft 507kts
06-Oct-18 17:42 35.471047 -119.083946 142 26872ft 528kts
06-Oct-18 17:43 35.371124 -118.982743 139 26874ft 529kts
06-Oct-18 17:44 35.279534 -118.888882 139 26876ft 529kts
06-Oct-18 17:45 35.198065 -118.805554 139 26878ft 529kts
06-Oct-18 17:46 35.115727 -118.721405 139 26919ft 516kts
06-Oct-18 17:47 35.044306 -118.650182 146 26916ft 520kts
06-Oct-18 17:48 34.932637 -118.604570 173 26943ft 512kts
06-Oct-18 17:49 34.813185 -118.583264 174 26922ft 512kts
06-Oct-18 17:50 34.729732 -118.568793 174 26922ft 512kts
06-Oct-18 17:51 34.609803 -118.548101 175 26923ft 512kts
06-Oct-18 17:52 34.485455 -118.526721 174 26923ft 512kts
06-Oct-18 17:53 34.352632 -118.503944 174 26924ft 512kts
06-Oct-18 17:54 34.213453 -118.480130 175 26927ft 512kts
06-Oct-18 17:55 34.084862 -118.458163 174 26927ft 510kts
06-Oct-18 17:56 33.952362 -118.423465 153 26943ft 517kts
06-Oct-18 17:57 33.853736 -118.328273 133 26308ft 469kts
06-Oct-18 17:58 33.783577 -118.238802 132 24798ft 450kts
06-Oct-18 17:59 33.688000 -118.116935 132 23921ft 442kts
06-Oct-18 18:00 33.617619 -118.027437 132 23919ft 443kts
06-Oct-18 18:01 33.520931 -117.904833 133 23920ft 443kts
06-Oct-18 18:02 33.457116 -117.824141 133 23922ft 442kts
06-Oct-18 18:03 33.378139 -117.724530 133 22777ft 456kts
06-Oct-18 18:04 33.298885 -117.624847 133 19932ft 426kts
06-Oct-18 18:05 33.221163 -117.527357 133 17494ft 381kts
06-Oct-18 18:06 33.154056 -117.443387 133 15592ft 367kts
06-Oct-18 18:07 33.102315 -117.400825 155 15081ft 364kts
06-Oct-18 18:08 33.102315 -117.400825 155 15081ft 364kts
06-Oct-18 18:09 32.916526 -117.298495 156 13198ft 326kts
06-Oct-18 18:10 32.906185 -117.292800 155 13016ft 324kts
06-Oct-18 18:11 32.776045 -117.220809 155 10665ft 312kts
06-Oct-18 18:12 32.697298 -117.192132 192 10053ft 307kts
06-Oct-18 18:13 32.647543 -117.257275 273 10052ft 276kts
06-Oct-18 18:14 32.688229 -117.316121 347 8986ft 271kts
06-Oct-18 18:15 32.760333 -117.328341 351 7918ft 267kts
06-Oct-18 18:16 32.782521 -117.330759 2 7595ft 267kts
06-Oct-18 18:17 32.828203 -117.279856 81 7057ft 277kts
06-Oct-18 18:18 32.825519 -117.154722 91 7037ft 279kts
06-Oct-18 18:19 32.815947 -117.069301 101 6651ft 276kts
06-Oct-18 18:20 32.800649 -116.983795 101 5665ft 273kts
06-Oct-18 18:21 32.785105 -116.897550 101 5055ft 271kts
06-Oct-18 18:22 32.740632 -116.849156 186 4951ft 219kts
06-Oct-18 18:23 32.686253 -116.857892 203 4110ft 196kts
06-Oct-18 18:24 32.665682 -116.906902 278 3842ft 183kts
06-Oct-18 18:25 32.677058 -116.957600 286 3854ft 167kts
06-Oct-18 18:26 32.688012 -117.002611 287 3193ft 144kts
06-Oct-18 18:27 32.698515 -117.045583 287 2558ft 138kts
06-Oct-18 18:28 32.709233 -117.089586 286 1777ft 138kts
06-Oct-18 18:29 32.718914 -117.129333 287 1003ft 137kts
06-Oct-18 18:30 32.727538 -117.164705 286 387ft 136kts
06-Oct-18 18:31 32.734803 -117.195030 286 25ft 58kts
06-Oct-18 18:32 32.735659 -117.201877 140 25ft 4kts
06-Oct-18 18:33 32.734669 -117.198517 105 25ft 21kts
06-Oct-18 18:34 32.734332 -117.197122 105 25ft 0kts
06-Oct-18 18:35 32.733953 -117.195467 105 25ft 9kts
06-Oct-18 18:36 32.733569 -117.193967 106 25ft 11kts
06-Oct-18 18:37 32.734820 -117.190508 78 25ft 8kts
06-Oct-18 18:38 32.734148 -117.187295 103 25ft 19kts
06-Oct-18 18:39 32.734843 -117.184229 324 25ft 12kts
06-Oct-18 18:40 32.736620 -117.184993 356 25ft 0kts
06-Oct-18 18:41 32.736621 -117.184993 356 24ft 0kts
06-Oct-18 18:42 32.736621 -117.184993 356 24ft 0kts
06-Oct-18 18:43 32.736621 -117.184993 356 24ft 0kts
06-Oct-18 18:44 32.736621 -117.184993 356 24ft 0kts
06-Oct-18 18:45 32.736621 -117.184993 356 24ft 0kts
06-Oct-18 18:46 32.736621 -117.184993 356 24ft 0kts

Navigation Log

Ident Type
Flight plan parsing failed, navigation log unavailable